createdAt,value
2023-03-16T00:01:12.042Z,4.85
2023-03-16T00:03:40.950Z,4.84
2023-03-16T00:06:10.004Z,4.83
2023-03-16T00:08:39.903Z,4.81
2023-03-16T00:11:08.392Z,4.81
2023-03-16T00:13:37.534Z,4.83
2023-03-16T00:16:07.879Z,4.86
2023-03-16T00:18:41.497Z,4.88
2023-03-16T00:21:10.229Z,4.89
2023-03-16T00:23:39.067Z,4.88
2023-03-16T00:26:08.892Z,4.86
2023-03-16T00:28:39.709Z,4.86
2023-03-16T00:31:12.106Z,4.89
2023-03-16T00:33:45.726Z,4.91
2023-03-16T00:36:14.777Z,4.93
2023-03-16T00:38:49.338Z,4.99
2023-03-16T00:41:18.759Z,5.04
2023-03-16T00:43:49.132Z,5.08
2023-03-16T00:46:18.860Z,5.10
2023-03-16T00:48:49.008Z,5.14
2023-03-16T00:51:19.502Z,5.15
2023-03-16T00:53:48.830Z,5.15
2023-03-16T00:56:20.507Z,5.14
2023-03-16T00:58:49.920Z,5.14
2023-03-16T01:01:19.802Z,5.16
2023-03-16T01:03:50.774Z,5.17
2023-03-16T01:06:20.882Z,5.16
2023-03-16T01:08:49.904Z,5.14
2023-03-16T01:11:20.082Z,5.15
2023-03-16T01:13:49.808Z,5.14
2023-03-16T01:16:19.318Z,5.10
2023-03-16T01:18:52.718Z,5.11
2023-03-16T01:21:23.151Z,5.11
2023-03-16T01:23:54.042Z,5.10
2023-03-16T01:26:25.422Z,5.12
2023-03-16T01:28:55.172Z,5.16
2023-03-16T01:31:24.549Z,5.19
2023-03-16T01:33:53.640Z,5.19
2023-03-16T01:36:25.851Z,5.16
2023-03-16T01:39:07.027Z,5.12
2023-03-16T01:41:43.554Z,5.08
2023-03-16T01:44:17.481Z,5.02
2023-03-16T01:46:46.312Z,4.97
2023-03-16T01:49:25.486Z,4.93
2023-03-16T01:52:04.351Z,4.92
2023-03-16T01:54:55.411Z,4.91
2023-03-16T01:57:30.612Z,4.92
2023-03-16T02:00:21.227Z,4.93
2023-03-16T02:03:15.287Z,4.96
2023-03-16T02:05:53.108Z,4.97
2023-03-16T02:08:23.814Z,4.95
2023-03-16T02:10:54.957Z,4.94
2023-03-16T02:13:25.019Z,4.93
2023-03-16T02:15:55.516Z,4.92
2023-03-16T02:18:24.249Z,4.93
2023-03-16T02:21:21.018Z,4.94
2023-03-16T02:23:50.884Z,4.92
2023-03-16T02:26:51.132Z,4.89
2023-03-16T02:29:25.940Z,4.86
2023-03-16T02:31:56.986Z,4.84
2023-03-16T02:34:25.754Z,4.81
2023-03-16T02:36:55.864Z,4.77
2023-03-16T02:39:26.488Z,4.77
2023-03-16T02:41:55.183Z,4.76
2023-03-16T02:44:26.790Z,4.78
2023-03-16T02:46:57.504Z,4.79
2023-03-16T02:49:33.301Z,4.79
2023-03-16T02:52:02.014Z,4.78
2023-03-16T02:54:32.706Z,4.79
2023-03-16T02:57:02.604Z,4.78
2023-03-16T02:59:32.940Z,4.79
2023-03-16T03:02:04.799Z,4.78
2023-03-16T03:04:34.462Z,4.78
2023-03-16T03:07:05.123Z,4.77
2023-03-16T03:09:49.873Z,4.74
2023-03-16T03:12:18.436Z,4.72
2023-03-16T03:14:52.513Z,4.72
2023-03-16T03:17:21.938Z,4.72
2023-03-16T03:19:50.653Z,4.70
2023-03-16T03:22:22.777Z,4.68
2023-03-16T03:24:52.194Z,4.66
2023-03-16T03:27:22.776Z,4.67
2023-03-16T03:29:52.627Z,4.65
2023-03-16T03:32:22.048Z,4.63
2023-03-16T03:34:55.293Z,4.61
2023-03-16T03:37:25.529Z,4.58
2023-03-16T03:39:54.030Z,4.57
2023-03-16T03:42:26.106Z,4.58
2023-03-16T03:44:54.847Z,4.59
2023-03-16T03:47:23.408Z,4.60
2023-03-16T03:49:52.671Z,4.59
2023-03-16T03:52:23.349Z,4.62
2023-03-16T03:54:52.067Z,4.64
2023-03-16T03:57:21.908Z,4.65
2023-03-16T03:59:51.294Z,4.66
2023-03-16T04:02:39.113Z,4.67
2023-03-16T04:05:12.138Z,4.69
2023-03-16T04:07:41.747Z,4.69
2023-03-16T04:10:12.095Z,4.71
2023-03-16T04:12:47.657Z,4.74
2023-03-16T04:15:17.081Z,4.75
2023-03-16T04:17:53.049Z,4.76
2023-03-16T04:20:23.842Z,4.77
2023-03-16T04:22:58.820Z,4.80
2023-03-16T04:25:31.010Z,4.80
2023-03-16T04:28:00.989Z,4.80
2023-03-16T04:30:31.155Z,4.80
2023-03-16T04:33:15.117Z,4.78
2023-03-16T04:35:46.328Z,4.78
2023-03-16T04:38:18.397Z,4.78
2023-03-16T04:40:56.495Z,4.79
2023-03-16T04:43:34.645Z,4.80
2023-03-16T04:46:08.329Z,4.82
2023-03-16T04:48:37.541Z,4.82
2023-03-16T04:51:07.449Z,4.81
2023-03-16T04:53:38.885Z,4.85
2023-03-16T04:56:19.895Z,4.88
2023-03-16T04:58:52.993Z,4.92
2023-03-16T05:01:22.298Z,4.96
2023-03-16T05:03:53.566Z,4.98
2023-03-16T05:06:22.526Z,4.99
2023-03-16T05:08:52.475Z,5.01
2023-03-16T05:11:21.081Z,5.05
2023-03-16T05:13:56.207Z,5.02
2023-03-16T05:16:29.886Z,5.01
2023-03-16T05:18:59.846Z,5.04
2023-03-16T05:21:32.349Z,5.06
2023-03-16T05:24:06.095Z,5.07
2023-03-16T05:26:34.832Z,5.09
2023-03-16T05:29:05.158Z,5.07
2023-03-16T05:31:34.368Z,5.08
2023-03-16T05:34:06.375Z,5.10
2023-03-16T05:36:37.303Z,5.11
2023-03-16T05:39:10.075Z,5.14
2023-03-16T05:41:44.336Z,5.15
2023-03-16T05:44:19.154Z,5.14
2023-03-16T05:47:15.025Z,5.13
2023-03-16T05:49:46.653Z,5.13
2023-03-16T05:52:25.711Z,5.16
2023-03-16T05:54:54.965Z,5.17
2023-03-16T05:57:27.363Z,5.17
2023-03-16T05:59:56.473Z,5.17
2023-03-16T06:02:25.774Z,5.19
2023-03-16T06:04:54.914Z,5.23
2023-03-16T06:07:24.540Z,5.30
2023-03-16T06:09:57.008Z,5.35
2023-03-16T06:12:25.843Z,5.43
2023-03-16T06:14:54.367Z,5.49
2023-03-16T06:17:23.947Z,5.53
2023-03-16T06:19:54.008Z,5.54
2023-03-16T06:22:24.183Z,5.58
2023-03-16T06:24:55.972Z,5.63
2023-03-16T06:27:26.737Z,5.64
2023-03-16T06:30:13.126Z,5.62
2023-03-16T06:32:42.598Z,5.60
2023-03-16T06:35:12.005Z,5.60
2023-03-16T06:37:48.439Z,5.64
2023-03-16T06:40:41.667Z,5.68
2023-03-16T06:43:14.369Z,5.72
2023-03-16T06:45:46.132Z,5.76
2023-03-16T06:48:15.109Z,5.83
2023-03-16T06:50:47.748Z,5.88
2023-03-16T06:53:22.490Z,5.92
2023-03-16T06:55:53.392Z,5.97
2023-03-16T06:58:22.366Z,6.03
2023-03-16T07:00:56.435Z,6.12
2023-03-16T07:03:25.406Z,6.17
2023-03-16T07:05:57.596Z,6.21
2023-03-16T07:08:26.390Z,6.26
2023-03-16T07:10:55.597Z,6.31
2023-03-16T07:13:24.078Z,6.31
2023-03-16T07:15:53.274Z,6.30
2023-03-16T07:18:26.345Z,6.29
2023-03-16T07:20:55.456Z,6.32
2023-03-16T07:23:27.322Z,6.39
2023-03-16T07:26:00.129Z,6.45
2023-03-16T07:28:29.860Z,6.48
2023-03-16T07:31:03.698Z,6.53
2023-03-16T07:33:38.081Z,6.60
2023-03-16T07:36:10.996Z,6.62
2023-03-16T07:38:44.209Z,6.68
2023-03-16T07:41:14.691Z,6.76
2023-03-16T07:43:46.951Z,6.83
2023-03-16T07:46:20.412Z,6.89
2023-03-16T07:48:49.483Z,6.89
2023-03-16T07:51:17.826Z,6.88
2023-03-16T07:53:50.093Z,6.91
2023-03-16T07:56:42.374Z,6.90
2023-03-16T07:59:48.172Z,6.88
2023-03-16T08:02:19.402Z,6.91
2023-03-16T08:04:49.328Z,6.93
2023-03-16T08:07:17.940Z,6.96
2023-03-16T08:09:56.278Z,7.00
2023-03-16T08:12:35.861Z,7.07
2023-03-16T08:15:06.069Z,7.09
2023-03-16T08:17:35.307Z,7.08
2023-03-16T08:20:14.171Z,7.05
2023-03-16T08:22:46.780Z,7.04
2023-03-16T08:25:20.158Z,7.07
2023-03-16T08:28:09.065Z,7.10
2023-03-16T08:30:46.168Z,7.17
2023-03-16T08:33:23.727Z,7.26
2023-03-16T08:35:53.930Z,7.26
2023-03-16T08:38:22.869Z,7.28
2023-03-16T08:40:52.523Z,7.31
2023-03-16T08:43:22.769Z,7.34
2023-03-16T08:45:52.698Z,7.37
2023-03-16T08:48:23.742Z,7.42
2023-03-16T08:50:56.924Z,7.42
2023-03-16T08:53:28.474Z,7.39
2023-03-16T08:56:10.610Z,7.36
2023-03-16T08:58:39.646Z,7.31
2023-03-16T09:01:09.763Z,7.29
2023-03-16T09:03:46.696Z,7.26
2023-03-16T09:06:16.531Z,7.24
2023-03-16T09:08:47.898Z,7.23
2023-03-16T09:11:19.095Z,7.23
2023-03-16T09:13:49.128Z,7.27
2023-03-16T09:16:19.242Z,7.32
2023-03-16T09:18:48.425Z,7.29
2023-03-16T09:21:17.190Z,7.22
2023-03-16T09:23:45.746Z,7.14
2023-03-16T09:26:15.424Z,7.09
2023-03-16T09:28:44.057Z,7.07
2023-03-16T09:31:18.142Z,7.05
2023-03-16T09:33:47.481Z,7.09
2023-03-16T09:36:24.089Z,7.12
2023-03-16T09:38:52.851Z,7.11
2023-03-16T09:41:35.824Z,7.09
2023-03-16T09:44:23.700Z,7.06
2023-03-16T09:46:52.450Z,7.05
2023-03-16T09:49:22.315Z,7.09
2023-03-16T09:52:03.573Z,7.11
2023-03-16T09:54:34.817Z,7.09
2023-03-16T09:57:03.499Z,7.15
2023-03-16T09:59:33.283Z,7.15
2023-03-16T10:02:28.728Z,7.17
2023-03-16T10:05:12.673Z,7.32
2023-03-16T10:08:02.874Z,7.47
2023-03-16T10:10:51.951Z,7.54
2023-03-16T10:13:49.109Z,7.54
2023-03-16T10:16:40.214Z,7.58
2023-03-16T10:19:42.344Z,7.58
2023-03-16T10:22:30.041Z,7.55
2023-03-16T10:25:13.158Z,7.70
2023-03-16T10:27:44.965Z,7.80
2023-03-16T10:30:21.768Z,7.85
2023-03-16T10:32:50.563Z,7.75
2023-03-16T10:35:37.766Z,7.70
2023-03-16T10:38:38.933Z,7.72
2023-03-16T10:41:22.858Z,7.69
2023-03-16T10:43:55.805Z,7.69
2023-03-16T10:46:26.100Z,7.71
2023-03-16T10:49:02.180Z,7.77
2023-03-16T10:51:33.127Z,7.72
2023-03-16T10:54:40.117Z,7.71
2023-03-16T10:57:21.047Z,7.71
2023-03-16T10:59:50.973Z,7.62
2023-03-16T11:02:23.924Z,7.56
2023-03-16T11:22:13.651Z,7.72
2023-03-16T11:24:57.937Z,7.76
2023-03-16T11:27:30.053Z,7.84
2023-03-16T11:30:05.728Z,7.90
2023-03-16T11:32:40.874Z,7.84
2023-03-16T11:35:18.481Z,7.79
2023-03-16T11:37:49.904Z,7.74
2023-03-16T11:40:29.307Z,7.72
2023-03-16T11:43:04.827Z,7.68
2023-03-16T11:45:37.952Z,7.63
2023-03-16T11:48:16.506Z,7.61
2023-03-16T11:50:51.885Z,7.57
2023-03-16T11:53:30.101Z,7.58
2023-03-16T11:56:05.677Z,7.65
2023-03-16T11:58:41.320Z,7.61
2023-03-16T12:01:22.637Z,7.60
2023-03-16T12:04:04.247Z,7.63
2023-03-16T12:06:32.895Z,7.65
2023-03-16T12:09:40.762Z,7.62
2023-03-16T12:12:23.455Z,7.53
2023-03-16T12:14:59.444Z,7.54
2023-03-16T12:17:30.799Z,7.53
2023-03-16T12:20:05.793Z,7.54
2023-03-16T12:23:01.058Z,7.54
2023-03-16T12:25:36.908Z,7.56
2023-03-16T12:28:10.183Z,7.56
2023-03-16T12:30:45.475Z,7.58
2023-03-16T12:33:40.165Z,7.64
2023-03-16T12:36:29.425Z,7.69
2023-03-16T12:39:05.509Z,7.72
2023-03-16T12:41:49.180Z,7.76
2023-03-16T12:44:31.694Z,7.79
2023-03-16T12:47:03.831Z,7.81
2023-03-16T12:49:33.629Z,7.79
2023-03-16T12:52:11.407Z,7.82
2023-03-16T12:55:16.805Z,7.83
2023-03-16T12:57:48.482Z,7.80
2023-03-16T13:00:17.827Z,7.77
2023-03-16T13:03:06.777Z,7.80
2023-03-16T13:05:37.016Z,7.78
2023-03-16T13:08:11.297Z,7.74
2023-03-16T13:10:59.913Z,7.72
2023-03-16T13:13:29.237Z,7.75
2023-03-16T13:16:12.419Z,7.82
2023-03-16T13:18:45.388Z,7.84
2023-03-16T13:21:23.234Z,7.84
2023-03-16T13:23:58.788Z,7.87
2023-03-16T13:26:48.849Z,7.90
2023-03-16T13:29:20.119Z,7.96
2023-03-16T13:31:49.072Z,7.99
2023-03-16T13:34:48.577Z,7.99
2023-03-16T13:37:20.038Z,7.98
2023-03-16T13:39:54.683Z,7.94
2023-03-16T13:42:29.660Z,7.84
2023-03-16T13:44:58.969Z,7.77
2023-03-16T13:47:27.978Z,7.75
2023-03-16T13:49:59.162Z,7.74
2023-03-16T13:52:34.476Z,7.73
2023-03-16T13:55:17.426Z,7.75
2023-03-16T13:57:45.905Z,7.75
2023-03-16T14:00:25.612Z,7.77
2023-03-16T14:02:56.407Z,7.78
2023-03-16T14:05:30.658Z,7.77
2023-03-16T14:08:01.223Z,7.72
2023-03-16T14:10:33.500Z,7.75
2023-03-16T14:13:10.570Z,7.80
2023-03-16T14:15:41.012Z,7.77
2023-03-16T14:18:32.917Z,7.75
2023-03-16T14:21:08.404Z,7.72
2023-03-16T14:23:41.985Z,7.69
2023-03-16T14:26:19.747Z,7.67
2023-03-16T14:29:06.674Z,7.63
2023-03-16T14:31:40.020Z,7.60
2023-03-16T14:34:29.139Z,7.57
2023-03-16T14:37:12.424Z,7.58
2023-03-16T14:39:41.584Z,7.58
2023-03-16T14:42:20.149Z,7.60
2023-03-16T14:44:51.166Z,7.58
2023-03-16T14:47:28.385Z,7.58
2023-03-16T14:49:59.256Z,7.55
2023-03-16T14:52:31.906Z,7.54
2023-03-16T14:55:03.542Z,7.55
2023-03-16T14:57:35.625Z,7.56
2023-03-16T15:00:06.743Z,7.54
2023-03-16T15:02:37.007Z,7.52
2023-03-16T15:05:08.209Z,7.52
2023-03-16T15:07:40.768Z,7.49
2023-03-16T15:10:15.638Z,7.50
2023-03-16T15:12:54.218Z,7.50
2023-03-16T15:15:24.100Z,7.49
2023-03-16T15:17:55.602Z,7.47
2023-03-16T15:20:30.528Z,7.43
2023-03-16T15:22:59.717Z,7.39
2023-03-16T15:25:37.464Z,7.35
2023-03-16T15:28:16.132Z,7.35
2023-03-16T15:30:51.463Z,7.35
2023-03-16T15:33:22.375Z,7.35
2023-03-16T15:35:51.817Z,7.35
2023-03-16T15:38:27.574Z,7.33
2023-03-16T15:40:56.802Z,7.31
2023-03-16T15:43:31.256Z,7.29
2023-03-16T15:46:00.516Z,7.27
2023-03-16T15:48:29.147Z,7.25
2023-03-16T15:51:13.819Z,7.21
2023-03-16T15:54:05.369Z,7.18
2023-03-16T15:56:52.788Z,7.14
2023-03-16T15:59:27.377Z,7.11
2023-03-16T16:01:58.505Z,7.10
2023-03-16T16:04:27.345Z,7.09
2023-03-16T16:06:57.050Z,7.09
2023-03-16T16:09:26.137Z,7.09
2023-03-16T16:11:54.670Z,7.12
2023-03-16T16:14:28.202Z,7.12
2023-03-16T16:16:57.484Z,7.13
2023-03-16T16:19:27.193Z,7.14
2023-03-16T16:21:55.884Z,7.14
2023-03-16T16:24:25.402Z,7.15
2023-03-16T16:26:55.744Z,7.17
2023-03-16T16:29:28.098Z,7.17
2023-03-16T16:31:57.537Z,7.15
2023-03-16T16:34:27.453Z,7.13
2023-03-16T16:36:56.947Z,7.09
2023-03-16T16:39:25.598Z,7.07
2023-03-16T16:41:57.204Z,7.05
2023-03-16T16:44:32.016Z,7.02
2023-03-16T16:47:18.194Z,7.01
2023-03-16T16:49:47.876Z,7.00
2023-03-16T16:52:20.064Z,6.98
2023-03-16T16:54:48.892Z,6.97
2023-03-16T16:57:18.675Z,6.95
2023-03-16T16:59:48.048Z,6.94
2023-03-16T17:02:28.919Z,6.94
2023-03-16T17:05:00.058Z,6.92
2023-03-16T17:07:30.225Z,6.91
2023-03-16T17:09:59.054Z,6.89
2023-03-16T17:12:29.778Z,6.88
2023-03-16T17:14:58.369Z,6.89
2023-03-16T17:17:30.605Z,6.90
2023-03-16T17:19:59.970Z,6.90
2023-03-16T17:22:28.684Z,6.87
2023-03-16T17:24:58.846Z,6.87
2023-03-16T17:27:29.649Z,6.86
2023-03-16T17:29:58.609Z,6.84
2023-03-16T17:32:27.983Z,6.84
2023-03-16T17:34:57.453Z,6.85
2023-03-16T17:37:26.568Z,6.84
2023-03-16T17:39:57.749Z,6.83
2023-03-16T17:42:31.756Z,6.85
2023-03-16T17:45:01.269Z,6.85
2023-03-16T17:47:30.614Z,6.86
2023-03-16T17:49:59.724Z,6.86
2023-03-16T17:52:29.527Z,6.85
2023-03-16T17:55:01.125Z,6.84
2023-03-16T17:57:32.889Z,6.82
2023-03-16T18:00:02.883Z,6.79
2023-03-16T18:02:56.237Z,6.78
2023-03-16T18:05:27.642Z,6.79
2023-03-16T18:08:17.594Z,6.78
2023-03-16T18:10:50.457Z,6.79
2023-03-16T18:13:28.070Z,6.82
2023-03-16T18:16:00.421Z,6.82
2023-03-16T18:18:31.071Z,6.81
2023-03-16T18:21:02.276Z,6.79
2023-03-16T18:23:34.036Z,6.77
2023-03-16T18:26:07.262Z,6.74
2023-03-16T18:28:38.920Z,6.72
2023-03-16T18:31:21.782Z,6.72
2023-03-16T18:33:51.910Z,6.68
2023-03-16T18:36:28.574Z,6.68
2023-03-16T18:39:04.198Z,6.67
2023-03-16T18:41:34.353Z,6.66
2023-03-16T18:44:18.770Z,6.65
2023-03-16T18:46:48.430Z,6.63
2023-03-16T18:49:21.632Z,6.60
2023-03-16T18:51:55.019Z,6.58
2023-03-16T18:54:30.862Z,6.56
2023-03-16T18:56:59.697Z,6.55
2023-03-16T18:59:30.322Z,6.55
2023-03-16T19:01:59.507Z,6.52
2023-03-16T19:04:31.214Z,6.50
2023-03-16T19:07:00.033Z,6.47
2023-03-16T19:09:30.021Z,6.45
2023-03-16T19:12:00.369Z,6.43
2023-03-16T19:14:33.517Z,6.40
2023-03-16T19:17:06.175Z,6.38
2023-03-16T19:19:36.593Z,6.35
2023-03-16T19:22:16.893Z,6.33
2023-03-16T19:24:53.112Z,6.31
2023-03-16T19:27:36.048Z,6.28
2023-03-16T19:30:22.800Z,6.26
2023-03-16T19:32:52.457Z,6.23
2023-03-16T19:35:21.955Z,6.20
2023-03-16T19:37:52.680Z,6.18
2023-03-16T19:40:23.870Z,6.16
2023-03-16T19:42:53.256Z,6.14
2023-03-16T19:45:27.667Z,6.13
2023-03-16T19:47:58.633Z,6.14
2023-03-16T19:50:28.500Z,6.14
2023-03-16T19:52:58.682Z,6.14
2023-03-16T19:55:31.926Z,6.14
2023-03-16T19:58:06.285Z,6.14
2023-03-16T20:00:35.430Z,6.11
2023-03-16T20:03:04.358Z,6.08
2023-03-16T20:05:33.952Z,6.05
2023-03-16T20:08:19.180Z,6.04
2023-03-16T20:10:48.759Z,6.02
2023-03-16T20:13:18.693Z,6.02
2023-03-16T20:15:48.425Z,6.03
2023-03-16T20:18:17.399Z,6.07
2023-03-16T20:20:47.541Z,6.08
2023-03-16T20:23:17.711Z,6.11
2023-03-16T20:25:46.937Z,6.12
2023-03-16T20:28:22.493Z,6.13
2023-03-16T20:30:51.072Z,6.14
2023-03-16T20:33:37.676Z,6.16
2023-03-16T20:36:07.403Z,6.16
2023-03-16T20:38:40.022Z,6.15
2023-03-16T20:41:14.559Z,6.15
2023-03-16T20:43:43.399Z,6.13
2023-03-16T20:46:17.462Z,6.13
2023-03-16T20:48:46.353Z,6.13
2023-03-16T20:51:18.636Z,6.11
2023-03-16T20:53:47.914Z,6.09
2023-03-16T20:56:18.154Z,6.11
2023-03-16T20:58:50.977Z,6.11
2023-03-16T21:01:21.177Z,6.12
2023-03-16T21:03:55.582Z,6.12
2023-03-16T21:06:27.318Z,6.11
2023-03-16T21:08:58.035Z,6.11
2023-03-16T21:11:34.929Z,6.11
2023-03-16T21:14:04.531Z,6.10
2023-03-16T21:16:33.501Z,6.09
2023-03-16T21:19:03.074Z,6.08
2023-03-16T21:21:32.304Z,6.09
2023-03-16T21:24:05.064Z,6.07
2023-03-16T21:26:34.870Z,6.08
2023-03-16T21:29:06.932Z,6.09
2023-03-16T21:31:37.521Z,6.09
2023-03-16T21:34:18.792Z,6.10
2023-03-16T21:36:51.033Z,6.09
2023-03-16T21:39:20.606Z,6.06
2023-03-16T21:41:50.941Z,6.05
2023-03-16T21:44:20.256Z,6.04
2023-03-16T21:46:49.899Z,6.04
2023-03-16T21:49:19.954Z,6.04
2023-03-16T21:51:50.347Z,6.03
2023-03-16T21:54:19.686Z,6.03
2023-03-16T21:56:50.618Z,6.02
2023-03-16T21:59:19.483Z,6.02
2023-03-16T22:02:01.311Z,6.03
2023-03-16T22:04:33.273Z,6.02
2023-03-16T22:07:01.763Z,6.02
2023-03-16T22:09:33.088Z,6.01
2023-03-16T22:12:02.013Z,6.01
2023-03-16T22:14:32.186Z,5.98
2023-03-16T22:17:03.884Z,5.96
2023-03-16T22:19:33.214Z,5.95
2023-03-16T22:22:02.235Z,5.95
2023-03-16T22:24:36.024Z,5.96
2023-03-16T22:27:06.245Z,5.97
2023-03-16T22:29:36.985Z,5.98
2023-03-16T22:32:17.269Z,6.00
2023-03-16T22:34:48.431Z,5.99
2023-03-16T22:37:23.266Z,5.98
2023-03-16T22:39:51.910Z,5.97
2023-03-16T22:42:37.383Z,5.96
2023-03-16T22:45:22.276Z,5.96
2023-03-16T22:47:57.589Z,5.97
2023-03-16T22:50:27.682Z,5.97
2023-03-16T22:52:58.590Z,5.99
2023-03-16T22:55:31.194Z,6.00
2023-03-16T22:58:04.413Z,6.00
2023-03-16T23:00:33.756Z,6.00
2023-03-16T23:03:03.363Z,5.99
2023-03-16T23:05:33.376Z,5.97
2023-03-16T23:08:05.876Z,5.96
2023-03-16T23:10:34.511Z,5.95
2023-03-16T23:13:19.079Z,5.94
2023-03-16T23:15:49.014Z,5.92
2023-03-16T23:18:22.681Z,5.90
2023-03-16T23:20:54.361Z,5.90
2023-03-16T23:23:26.276Z,5.90
2023-03-16T23:25:58.548Z,5.89
2023-03-16T23:28:27.421Z,5.89
2023-03-16T23:30:56.534Z,5.87
2023-03-16T23:33:25.411Z,5.85
2023-03-16T23:35:54.049Z,5.82
2023-03-16T23:38:22.537Z,5.79
2023-03-16T23:40:51.042Z,5.77
2023-03-16T23:43:23.400Z,5.77
2023-03-16T23:45:54.568Z,5.78
2023-03-16T23:48:24.092Z,5.80
2023-03-16T23:50:56.083Z,5.80
2023-03-16T23:53:25.720Z,5.80
2023-03-16T23:56:00.176Z,5.79
2023-03-16T23:58:29.887Z,5.78
